Time;durP1;ratioP1;P1;durP2;ratioP2;P2;SDS_P1;SDS_P2;PMS_P1;PMS_P2;Temp;Humidity;BMP_temperature;BMP_pressure;BME280_temperature;BME280_humidity;BME280_pressure;Samples;Min_cycle;Max_cycle;Signal;HPM_P1;HPM_P2
2023/07/07 00:00:09;;;;;;;21.75;10.25;;;;;;;20.19;53.26;100648.63;4975658;28;99073;-76
2023/07/07 00:02:35;;;;;;;11.70;9.07;;;;;;;20.21;53.29;100657.41;4975932;28;97284;-76
2023/07/07 00:05:00;;;;;;;14.98;9.95;;;;;;;20.23;53.39;100658.16;4973744;28;96780;-76
2023/07/07 00:07:26;;;;;;;14.57;9.30;;;;;;;20.18;53.33;100650.47;4968154;28;97328;-76
2023/07/07 00:09:51;;;;;;;14.52;10.35;;;;;;;20.14;53.36;100662.31;4974160;28;98667;-77
2023/07/07 00:12:17;;;;;;;15.13;10.20;;;;;;;19.94;54.00;100639.69;4974240;28;98398;-76
2023/07/07 00:14:43;;;;;;;14.18;10.38;;;;;;;20.04;53.65;100650.56;4974501;28;97670;-77
2023/07/07 00:17:10;;;;;;;16.63;10.98;;;;;;;20.01;53.59;100651.66;4974277;28;97270;-76
2023/07/07 00:19:36;;;;;;;18.80;11.18;;;;;;;20.02;53.50;100644.50;4973509;28;98827;-77
2023/07/07 00:22:05;;;;;;;14.60;12.60;;;;;;;20.08;53.38;100662.72;4974203;28;98511;-78
2023/07/07 00:24:32;;;;;;;11.80;10.43;;;;;;;20.02;53.70;100665.81;4973164;28;96678;-76
2023/07/07 00:26:57;;;;;;;14.40;12.00;;;;;;;19.99;53.43;100674.00;4978179;28;97667;-76
2023/07/07 00:29:23;;;;;;;19.75;14.43;;;;;;;19.90;53.64;100660.34;4977631;28;100917;-76
2023/07/07 00:31:48;;;;;;;13.85;12.48;;;;;;;19.87;53.71;100665.91;4974199;28;97287;-77
2023/07/07 00:34:14;;;;;;;15.25;12.52;;;;;;;19.78;54.07;100658.53;4965740;28;96737;-76
2023/07/07 00:36:39;;;;;;;14.07;12.27;;;;;;;19.79;54.12;100670.03;4958282;28;96820;-77
2023/07/07 00:39:05;;;;;;;14.20;12.80;;;;;;;19.84;53.85;100675.91;4986489;28;98883;-76
2023/07/07 00:41:31;;;;;;;15.05;13.40;;;;;;;19.81;53.74;100666.31;4973575;28;98465;-77
2023/07/07 00:44:08;;;;;;;14.48;12.27;;;;;;;19.80;54.06;100675.22;4972596;28;97095;-76
2023/07/07 00:46:35;;;;;;;14.85;11.70;;;;;;;19.75;53.89;100666.72;4985782;28;96993;-76
2023/07/07 00:49:03;;;;;;;15.45;13.10;;;;;;;19.77;53.96;100670.13;4969536;28;101065;-77
2023/07/07 00:51:49;;;;;;;13.98;12.43;;;;;;;19.65;54.63;100681.59;4969599;28;98785;-76
2023/07/07 00:54:18;;;;;;;13.88;12.13;;;;;;;19.66;54.42;100673.50;4965650;28;96858;-77
2023/07/07 00:56:47;;;;;;;16.33;12.75;;;;;;;19.70;54.33;100673.31;4962919;28;96852;-76
2023/07/07 00:59:18;;;;;;;13.25;12.10;;;;;;;19.66;54.36;100661.97;4953203;28;100703;-76
2023/07/07 01:01:44;;;;;;;16.55;11.40;;;;;;;19.56;54.12;100660.88;4981175;28;98454;-76
2023/07/07 01:04:13;;;;;;;14.50;12.27;;;;;;;19.61;54.16;100680.06;4980803;28;98106;-77
2023/07/07 01:06:41;;;;;;;13.43;12.02;;;;;;;19.50;54.48;100661.28;4969554;28;97313;-76
2023/07/07 01:09:08;;;;;;;13.52;12.13;;;;;;;19.47;54.46;100664.16;4987042;28;98751;-76
2023/07/07 01:11:35;;;;;;;13.35;12.32;;;;;;;19.54;54.33;100681.41;4952441;28;100174;-78
2023/07/07 01:14:03;;;;;;;13.68;12.25;;;;;;;19.49;54.21;100681.72;4967142;28;96819;-76
2023/07/07 01:16:37;;;;;;;15.45;13.23;;;;;;;19.44;54.44;100681.16;4969137;28;97085;-78
2023/07/07 01:19:21;;;;;;;17.25;13.85;;;;;;;19.37;54.76;100688.72;4982322;28;99256;-76
2023/07/07 01:22:11;;;;;;;15.25;13.63;;;;;;;19.33;54.74;100681.00;4974123;28;98674;-76
2023/07/07 01:24:52;;;;;;;15.93;14.50;;;;;;;19.31;54.77;100689.06;4966339;28;97263;-76
2023/07/07 01:27:45;;;;;;;12.82;11.70;;;;;;;19.28;54.80;100683.94;4974189;28;97342;-75
2023/07/07 01:30:28;;;;;;;15.98;14.68;;;;;;;19.22;55.02;100689.69;4965833;28;99242;-76
2023/07/07 01:32:54;;;;;;;14.52;13.30;;;;;;;19.15;55.34;100691.03;4984158;28;99100;-76
2023/07/07 01:35:22;;;;;;;16.58;15.07;;;;;;;19.15;55.34;100688.38;4968028;28;98531;-76
2023/07/07 01:37:59;;;;;;;17.38;15.48;;;;;;;19.10;55.46;100686.00;4965451;28;96814;-77
2023/07/07 01:40:40;;;;;;;16.40;15.00;;;;;;;19.12;55.42;100691.22;4968415;28;100413;-76
2023/07/07 01:43:17;;;;;;;15.85;14.55;;;;;;;18.89;56.30;100679.38;4982754;28;98711;-76
2023/07/07 01:45:52;;;;;;;16.85;15.15;;;;;;;18.99;55.78;100684.03;4971418;28;97523;-75
2023/07/07 01:48:30;;;;;;;17.05;15.13;;;;;;;19.04;55.91;100702.34;4972450;28;96850;-75
2023/07/07 01:50:55;;;;;;;16.23;14.52;;;;;;;18.87;56.01;100682.13;4974935;28;99006;-77
2023/07/07 01:53:23;;;;;;;15.20;13.90;;;;;;;19.02;55.93;100703.41;4982151;28;98389;-76
2023/07/07 01:55:52;;;;;;;17.23;15.32;;;;;;;18.85;56.21;100689.38;4966992;28;97249;-75
2023/07/07 01:58:19;;;;;;;15.90;14.27;;;;;;;18.91;56.12;100702.28;4971887;28;97279;-76
2023/07/07 02:00:45;;;;;;;17.10;15.30;;;;;;;18.87;56.46;100703.41;4955174;28;100480;-76
2023/07/07 02:03:11;;;;;;;17.65;15.57;;;;;;;18.77;56.20;100691.66;4969358;28;97105;-76
2023/07/07 02:05:37;;;;;;;20.58;15.13;;;;;;;18.73;56.21;100692.75;4975050;28;97391;-76
2023/07/07 02:08:03;;;;;;;17.55;16.10;;;;;;;18.86;56.17;100712.34;4987141;28;97161;-76
2023/07/07 02:10:29;;;;;;;17.20;15.55;;;;;;;18.72;56.11;100680.41;4968459;28;99224;-76
2023/07/07 02:12:54;;;;;;;16.70;15.38;;;;;;;18.78;56.00;100688.03;4972975;28;98329;-76
2023/07/07 02:15:20;;;;;;;16.98;15.40;;;;;;;18.83;55.93;100704.56;4968021;28;97133;-76
2023/07/07 02:17:45;;;;;;;16.38;14.88;;;;;;;18.67;56.03;100685.16;4970935;28;96897;-76
2023/07/07 02:20:11;;;;;;;17.90;16.27;;;;;;;18.76;56.45;100708.53;4972995;28;97973;-76
2023/07/07 02:22:37;;;;;;;20.77;15.40;;;;;;;18.61;56.37;100688.19;4956821;28;98538;-76
2023/07/07 02:25:03;;;;;;;15.50;14.15;;;;;;;18.71;55.75;100694.66;4970298;28;96947;-75
2023/07/07 02:27:29;;;;;;;17.58;16.17;;;;;;;18.71;56.46;100714.13;4967532;28;96883;-76
2023/07/07 02:29:54;;;;;;;18.27;16.83;;;;;;;18.67;56.05;100709.06;4964624;28;100398;-75
2023/07/07 02:32:20;;;;;;;11.15;10.00;;;;;;;18.66;56.28;100707.38;4967582;28;98431;-75
2023/07/07 02:34:47;;;;;;;12.43;10.82;;;;;;;18.68;56.22;100711.66;4964403;28;96807;-76
2023/07/07 02:37:17;;;;;;;17.40;16.00;;;;;;;18.54;55.87;100683.25;4971849;28;97210;-75
2023/07/07 02:39:44;;;;;;;20.95;16.33;;;;;;;18.57;56.18;100695.50;4969548;28;98707;-76
2023/07/07 02:42:10;;;;;;;20.45;18.38;;;;;;;18.47;55.89;100679.28;4978772;28;98623;-75
2023/07/07 02:44:37;;;;;;;17.50;16.20;;;;;;;18.57;56.04;100702.63;4982012;28;96971;-75
2023/07/07 02:47:02;;;;;;;18.70;17.00;;;;;;;18.62;55.78;100705.88;4972373;28;97340;-76
2023/07/07 02:49:28;;;;;;;21.35;16.63;;;;;;;18.30;55.85;100659.03;4976726;28;98817;-78
2023/07/07 02:51:53;;;;;;;18.48;13.82;;;;;;;18.59;55.60;100709.56;4984060;28;98946;-76
2023/07/07 02:54:19;;;;;;;17.30;15.23;;;;;;;18.55;55.66;100708.03;4965805;28;96819;-76
2023/07/07 02:56:45;;;;;;;16.10;14.45;;;;;;;18.50;55.78;100715.41;4968624;28;97558;-76
2023/07/07 02:59:10;;;;;;;15.07;13.68;;;;;;;18.53;55.83;100723.25;4970404;28;100621;-76
2023/07/07 03:01:36;;;;;;;16.05;14.55;;;;;;;18.43;55.72;100704.31;4969628;28;100311;-76
2023/07/07 03:04:01;;;;;;;14.88;13.48;;;;;;;18.40;55.72;100704.50;4965416;28;96750;-75
2023/07/07 03:06:27;;;;;;;15.27;13.98;;;;;;;18.47;56.14;100711.19;4966758;28;97848;-76
2023/07/07 03:08:54;;;;;;;18.55;16.35;;;;;;;18.46;55.97;100712.09;4983404;28;100322;-75
2023/07/07 03:11:23;;;;;;;16.42;15.07;;;;;;;18.53;55.98;100723.25;4969851;28;98369;-75
2023/07/07 03:13:49;;;;;;;18.45;14.70;;;;;;;18.36;55.97;100691.50;4971725;28;96649;-75
2023/07/07 03:16:24;;;;;;;16.98;15.68;;;;;;;18.56;55.56;100725.72;4973568;28;98212;-76
2023/07/07 03:18:57;;;;;;;18.48;16.48;;;;;;;18.62;55.26;100722.66;4972483;28;99232;-76
2023/07/07 03:21:24;;;;;;;16.45;14.82;;;;;;;18.64;54.66;100711.94;4960750;28;100607;-76
2023/07/07 03:23:58;;;;;;;16.13;14.70;;;;;;;18.91;54.62;100733.34;4961517;28;97101;-76
2023/07/07 03:26:26;;;;;;;16.63;15.10;;;;;;;19.06;54.19;100731.53;4962636;28;97297;-76
2023/07/07 03:28:54;;;;;;;14.13;12.57;;;;;;;19.19;54.01;100732.44;4973231;28;100385;-76
2023/07/07 03:31:28;;;;;;;16.83;15.07;;;;;;;19.26;53.58;100727.59;4958128;28;100235;-76
2023/07/07 03:33:59;;;;;;;16.35;14.73;;;;;;;19.33;53.57;100735.09;4958311;28;97254;-75
2023/07/07 03:36:29;;;;;;;44.50;18.17;;;;;;;19.30;53.37;100727.31;4982303;28;97372;-75
2023/07/07 03:38:55;;;;;;;44.10;15.68;;;;;;;19.33;52.78;100732.44;4965272;28;99584;-77
2023/07/07 03:41:24;;;;;;;19.45;14.18;;;;;;;19.38;53.06;100719.69;4981396;28;100075;-76
2023/07/07 03:43:50;;;;;;;14.88;13.20;;;;;;;19.41;52.91;100727.47;4974401;28;96819;-76
2023/07/07 03:46:20;;;;;;;16.85;13.05;;;;;;;19.41;52.58;100700.84;4968159;28;96864;-75
2023/07/07 03:48:47;;;;;;;15.05;13.43;;;;;;;19.69;52.34;100728.34;4970286;28;100844;-76
2023/07/07 03:51:14;;;;;;;15.60;13.68;;;;;;;19.80;52.08;100735.66;4985112;28;100516;-75
2023/07/07 03:53:41;;;;;;;14.55;13.30;;;;;;;19.89;51.64;100732.38;4967226;28;97072;-76
2023/07/07 03:56:06;;;;;;;17.15;12.13;;;;;;;19.79;51.79;100721.47;4972811;28;96894;-76
2023/07/07 03:58:32;;;;;;;19.17;14.95;;;;;;;19.98;51.59;100737.06;4959103;28;98889;-77
2023/07/07 04:01:02;;;;;;;18.20;14.43;;;;;;;20.04;51.43;100741.16;4981322;28;97647;-74
2023/07/07 04:03:28;;;;;;;16.52;14.80;;;;;;;19.89;51.41;100733.22;4969834;28;97039;-75
2023/07/07 04:05:54;;;;;;;17.83;14.00;;;;;;;20.00;51.65;100744.97;4965847;28;97281;-75
2023/07/07 04:08:25;;;;;;;22.63;15.77;;;;;;;20.15;51.16;100740.44;4965724;28;98404;-75
2023/07/07 04:11:04;;;;;;;17.73;16.33;;;;;;;20.15;51.00;100733.28;4981042;28;100276;-76
2023/07/07 04:13:32;;;;;;;16.90;15.50;;;;;;;20.33;50.71;100744.50;4971813;28;97070;-75
2023/07/07 04:16:19;;;;;;;17.38;15.75;;;;;;;20.38;50.30;100734.41;4972050;28;96924;-75
2023/07/07 04:18:45;;;;;;;20.60;15.27;;;;;;;20.50;50.43;100744.22;4970584;28;98808;-75
2023/07/07 04:21:13;;;;;;;16.15;14.50;;;;;;;20.66;50.15;100751.19;4968508;28;98838;-76
2023/07/07 04:23:40;;;;;;;21.00;15.18;;;;;;;20.72;49.45;100742.78;4978193;28;96659;-75
2023/07/07 04:26:07;;;;;;;22.17;15.07;;;;;;;20.80;49.42;100749.28;4963709;28;97183;-74
2023/07/07 04:28:36;;;;;;;17.83;16.02;;;;;;;21.01;49.44;100759.41;4978302;28;99027;-75
2023/07/07 04:31:03;;;;;;;17.88;14.88;;;;;;;21.17;49.01;100760.00;4968171;28;98839;-75
2023/07/07 04:33:29;;;;;;;16.85;15.27;;;;;;;21.28;48.56;100750.38;4971022;28;96749;-76
2023/07/07 04:35:57;;;;;;;17.48;15.55;;;;;;;21.48;48.17;100758.69;4970742;28;96846;-75
2023/07/07 04:38:30;;;;;;;16.58;14.82;;;;;;;21.66;47.70;100767.16;4970907;28;98595;-75
2023/07/07 04:41:11;;;;;;;16.27;14.63;;;;;;;21.87;47.21;100762.03;4967839;28;98626;-76
2023/07/07 04:43:40;;;;;;;13.95;12.55;;;;;;;22.06;46.94;100774.91;4967514;28;97605;-76
2023/07/07 04:46:07;;;;;;;16.67;15.00;;;;;;;22.18;46.43;100766.97;4990324;28;96836;-76
2023/07/07 04:48:32;;;;;;;15.85;14.25;;;;;;;22.34;45.83;100771.03;4973840;28;99238;-75
2023/07/07 04:51:03;;;;;;;14.68;13.18;;;;;;;22.51;45.92;100777.72;4964433;28;98213;-75
2023/07/07 04:53:30;;;;;;;17.13;15.68;;;;;;;22.61;45.54;100777.91;4973212;28;96666;-76
2023/07/07 04:55:58;;;;;;;17.08;15.40;;;;;;;22.76;45.42;100773.19;4971874;28;97194;-75
2023/07/07 04:58:28;;;;;;;16.27;14.68;;;;;;;22.92;45.33;100788.88;4969459;28;98672;-75
2023/07/07 05:01:05;;;;;;;18.27;15.82;;;;;;;23.00;45.19;100781.13;4965348;28;98276;-75
2023/07/07 05:03:31;;;;;;;15.85;14.55;;;;;;;23.05;44.56;100763.72;4972436;28;96782;-75
2023/07/07 05:05:57;;;;;;;15.82;14.43;;;;;;;23.28;44.38;100759.22;4967434;28;96897;-75
2023/07/07 05:08:22;;;;;;;16.83;15.43;;;;;;;23.51;44.15;100775.25;4976705;28;98713;-75
2023/07/07 05:10:48;;;;;;;16.30;14.38;;;;;;;23.64;43.70;100770.59;4969891;28;98469;-75
2023/07/07 05:13:14;;;;;;;15.75;14.32;;;;;;;23.78;43.76;100774.84;4970721;28;97210;-75
2023/07/07 05:15:39;;;;;;;14.20;12.80;;;;;;;23.87;43.04;100758.00;4983194;28;97331;-75
2023/07/07 05:18:05;;;;;;;16.13;14.55;;;;;;;24.21;42.58;100778.50;4981762;28;98843;-75
2023/07/07 05:20:30;;;;;;;15.95;14.55;;;;;;;24.26;42.43;100773.56;4975362;28;98310;-76
2023/07/07 05:22:56;;;;;;;14.55;13.23;;;;;;;24.36;42.28;100767.28;4965659;28;97358;-75
2023/07/07 05:25:22;;;;;;;14.65;13.35;;;;;;;24.63;42.17;100788.25;4968111;28;96932;-75
2023/07/07 05:27:47;;;;;;;14.77;13.57;;;;;;;24.84;41.81;100785.59;4969469;28;98721;-75
2023/07/07 05:30:13;;;;;;;12.10;11.10;;;;;;;24.99;41.52;100785.22;4970142;28;98917;-75
2023/07/07 05:32:38;;;;;;;14.50;13.10;;;;;;;24.97;41.27;100785.34;4973195;28;96750;-75
2023/07/07 05:35:04;;;;;;;13.40;10.63;;;;;;;25.12;40.61;100774.25;4978017;28;98257;-75
2023/07/07 05:37:30;;;;;;;11.82;10.73;;;;;;;25.48;40.62;100797.00;4969759;28;98963;-75
2023/07/07 05:39:56;;;;;;;14.00;10.77;;;;;;;25.62;40.06;100782.34;4965549;28;98527;-74
2023/07/07 05:42:21;;;;;;;11.48;10.38;;;;;;;25.91;39.95;100788.66;4970291;28;97831;-74
2023/07/07 05:44:47;;;;;;;13.70;10.75;;;;;;;26.22;39.37;100799.28;4969945;28;98126;-75
2023/07/07 05:47:12;;;;;;;9.75;8.48;;;;;;;26.48;39.08;100796.00;4974535;28;99984;-75
2023/07/07 05:49:38;;;;;;;10.88;9.80;;;;;;;26.81;38.72;100800.91;4963125;28;98386;-75
2023/07/07 05:52:04;;;;;;;8.68;7.85;;;;;;;27.31;37.97;100807.84;4974261;28;96896;-74
2023/07/07 05:54:31;;;;;;;9.70;8.00;;;;;;;27.86;37.12;100804.31;4972762;28;97362;-82
2023/07/07 05:56:59;;;;;;;10.02;7.63;;;;;;;28.69;35.57;100796.81;4976037;28;98753;-82
2023/07/07 05:59:24;;;;;;;32.88;20.52;;;;;;;29.83;33.85;100803.78;4977355;28;99002;-82
2023/07/07 06:01:50;;;;;;;27.00;24.27;;;;;;;31.31;31.53;100798.13;4972023;28;97770;-82
2023/07/07 06:04:15;;;;;;;17.38;15.93;;;;;;;34.45;27.60;100796.41;4967246;28;96800;-83
2023/07/07 06:06:41;;;;;;;27.77;24.38;;;;;;;37.77;23.82;100799.72;4965674;28;98773;-83
2023/07/07 06:09:06;;;;;;;22.45;20.63;;;;;;;40.46;21.05;100801.78;4963227;28;98365;-84
2023/07/07 06:11:32;;;;;;;24.02;22.08;;;;;;;42.69;19.43;100807.59;4964940;28;96818;-82
2023/07/07 06:13:57;;;;;;;25.33;22.95;;;;;;;44.13;17.77;100810.19;4974418;28;97621;-82
2023/07/07 06:16:23;;;;;;;26.60;24.58;;;;;;;45.02;17.26;100803.91;4982696;28;98558;-83
2023/07/07 06:18:49;;;;;;;26.35;24.30;;;;;;;46.06;16.24;100804.78;4985344;28;98436;-82
2023/07/07 06:21:14;;;;;;;21.40;19.77;;;;;;;47.06;15.60;100802.44;4969168;28;96763;-82
2023/07/07 06:23:40;;;;;;;21.77;20.00;;;;;;;46.83;15.02;100809.44;4976262;28;96980;-84
2023/07/07 06:26:05;;;;;;;21.60;20.00;;;;;;;46.34;15.33;100810.06;4962515;28;98582;-84
2023/07/07 06:28:31;;;;;;;21.35;19.33;;;;;;;47.91;14.94;100807.78;4973537;28;98861;-84
2023/07/07 06:30:57;;;;;;;20.40;18.70;;;;;;;48.76;14.20;100811.19;4973908;28;96724;-84
2023/07/07 06:33:22;;;;;;;20.75;19.13;;;;;;;49.33;14.05;100801.88;4974233;28;96818;-86
2023/07/07 06:35:48;;;;;;;21.52;19.73;;;;;;;50.35;13.31;100807.81;4972957;28;97893;-84
2023/07/07 06:38:14;;;;;;;20.35;18.85;;;;;;;51.08;12.79;100817.31;4973690;28;97303;-84
2023/07/07 06:40:40;;;;;;;21.58;19.88;;;;;;;49.56;13.30;100816.06;4973087;28;97541;-85
2023/07/07 06:43:05;;;;;;;21.13;19.65;;;;;;;50.78;12.62;100824.34;4974046;28;96954;-86
2023/07/07 06:45:33;;;;;;;21.65;19.73;;;;;;;51.43;12.42;100820.47;4971031;28;100398;-85
2023/07/07 06:48:02;;;;;;;23.57;19.57;;;;;;;52.55;12.07;100810.44;4972016;28;99271;-85
2023/07/07 06:50:30;;;;;;;20.58;18.70;;;;;;;53.31;11.78;100822.22;4969626;28;97092;-87
2023/07/07 06:52:56;;;;;;;;;;;;;;;52.78;11.81;100816.81;4970335;28;96871;-85
2023/07/07 06:55:22;;;;;;;20.70;19.08;;;;;;;53.92;11.24;100810.22;4956581;28;98627;-86
2023/07/07 06:57:47;;;;;;;22.52;20.73;;;;;;;53.76;10.85;100802.28;4971744;28;98421;-83
2023/07/07 07:00:13;;;;;;;21.58;19.58;;;;;;;51.58;12.24;100820.13;4973506;28;97134;-84
2023/07/07 07:02:39;;;;;;;21.13;19.63;;;;;;;53.99;11.07;100807.72;4973748;28;96796;-85
2023/07/07 07:05:05;;;;;;;21.42;19.83;;;;;;;53.33;10.64;100825.56;4961159;28;98775;-85
2023/07/07 07:07:31;;;;;;;21.75;20.20;;;;;;;54.36;10.16;100820.22;4979532;28;98308;-84
2023/07/07 07:09:57;;;;;;;20.75;19.20;;;;;;;55.59;9.81;100816.38;4967853;28;97009;-85
2023/07/07 07:12:22;;;;;;;20.88;19.42;;;;;;;56.65;9.05;100819.75;4976834;28;96913;-85
2023/07/07 07:14:48;;;;;;;22.27;20.48;;;;;;;57.37;9.46;100815.22;4970244;28;98987;-85
2023/07/07 07:17:13;;;;;;;20.75;19.23;;;;;;;57.88;8.90;100819.50;4967235;28;98515;-86
2023/07/07 07:19:39;;;;;;;20.85;19.38;;;;;;;57.99;8.32;100812.97;4972699;28;96865;-85
2023/07/07 07:22:04;;;;;;;21.15;19.35;;;;;;;58.61;8.29;100812.53;4973375;28;96871;-84
2023/07/07 07:24:30;;;;;;;21.90;20.20;;;;;;;59.07;7.92;100812.84;4975638;28;99020;-84
2023/07/07 07:26:55;;;;;;;21.75;20.17;;;;;;;59.05;7.70;100820.88;4969721;28;98692;-85
2023/07/07 07:29:21;;;;;;;21.55;19.95;;;;;;;59.07;7.95;100815.69;4967898;28;96670;-85
2023/07/07 07:31:47;;;;;;;21.45;19.98;;;;;;;59.81;7.41;100819.25;4973192;28;96803;-83
2023/07/07 07:34:38;;;;;;;21.88;20.30;;;;;;;60.47;6.83;100814.44;4973017;28;98974;-84
2023/07/07 07:37:05;;;;;;;20.95;19.55;;;;;;;58.97;7.63;100819.06;4958270;28;98576;-84
2023/07/07 07:39:30;;;;;;;20.98;19.35;;;;;;;60.58;7.04;100816.63;4963718;28;96735;-84
2023/07/07 07:41:56;;;;;;;21.23;19.70;;;;;;;61.39;6.75;100806.84;4969407;28;97026;-82
2023/07/07 07:44:23;;;;;;;22.00;20.50;;;;;;;61.90;6.85;100806.25;4962467;28;98726;-83
2023/07/07 07:46:51;;;;;;;21.10;19.60;;;;;;;61.85;6.89;100803.72;4963716;28;97609;-83
2023/07/07 07:49:16;;;;;;;22.15;20.70;;;;;;;62.50;6.45;100810.84;4973798;28;96778;-83
2023/07/07 07:51:43;;;;;;;23.40;21.67;;;;;;;62.61;6.03;100817.41;4964763;28;97093;-83
2023/07/07 07:54:11;;;;;;;22.65;20.95;;;;;;;63.03;6.19;100808.34;4972360;28;100371;-83
2023/07/07 07:56:36;;;;;;;22.33;20.90;;;;;;;63.46;5.90;100816.28;4965741;28;98685;-84
2023/07/07 07:59:03;;;;;;;21.05;19.65;;;;;;;63.67;5.72;100807.00;4969350;28;97145;-81
2023/07/07 08:01:28;;;;;;;21.75;20.45;;;;;;;64.14;5.27;100810.72;4972067;28;98729;-81
2023/07/07 08:03:54;;;;;;;25.23;23.15;;;;;;;63.90;5.39;100812.34;4975598;28;99136;-81
2023/07/07 08:06:20;;;;;;;23.00;21.30;;;;;;;62.35;6.15;100816.41;4959372;28;98238;-81
2023/07/07 08:08:45;;;;;;;23.30;21.65;;;;;;;62.02;5.77;100817.31;4970345;28;96717;-78
2023/07/07 08:11:13;;;;;;;23.35;21.77;;;;;;;61.95;6.28;100814.41;4970988;28;96824;-83
2023/07/07 08:13:39;;;;;;;24.73;23.08;;;;;;;61.87;6.70;100816.34;4972055;28;98619;-84
2023/07/07 08:16:05;;;;;;;23.50;21.95;;;;;;;62.23;6.14;100814.69;4969640;28;98622;-83
2023/07/07 08:18:30;;;;;;;24.52;22.98;;;;;;;61.53;5.57;100805.00;4969618;28;96782;-82
2023/07/07 08:20:56;;;;;;;25.90;24.08;;;;;;;61.64;5.73;100818.53;4967345;28;96937;-83
2023/07/07 08:23:21;;;;;;;25.27;23.33;;;;;;;62.66;6.39;100806.47;4969982;28;98759;-84
2023/07/07 08:25:48;;;;;;;23.52;21.83;;;;;;;61.99;6.04;100812.41;4966763;28;98825;-82
2023/07/07 08:28:14;;;;;;;23.42;21.98;;;;;;;62.22;6.52;100810.19;4968568;28;97332;-82
2023/07/07 08:30:40;;;;;;;22.85;21.33;;;;;;;62.52;6.10;100791.34;4969614;28;96763;-82
2023/07/07 08:33:05;;;;;;;22.88;21.48;;;;;;;62.01;6.57;100801.47;4969517;28;98176;-82
2023/07/07 08:35:31;;;;;;;22.08;20.50;;;;;;;58.61;7.73;100810.53;4970159;28;98624;-83
2023/07/07 08:37:56;;;;;;;22.45;21.02;;;;;;;55.60;8.54;100812.41;4972180;28;96856;-82
2023/07/07 08:40:23;;;;;;;21.55;20.00;;;;;;;52.18;10.10;100813.34;4971762;28;96838;-81
2023/07/07 08:42:50;;;;;;;21.77;20.33;;;;;;;49.87;11.33;100816.44;4973255;28;98576;-83
2023/07/07 08:45:21;;;;;;;20.50;19.30;;;;;;;47.86;12.30;100821.75;4971176;28;98454;-82
2023/07/07 08:48:24;;;;;;;22.83;21.23;;;;;;;45.22;13.86;100827.28;4970952;28;96917;-82
2023/07/07 08:51:00;;;;;;;21.02;19.52;;;;;;;44.16;14.67;100829.88;4970092;28;97003;-82
2023/07/07 08:53:39;;;;;;;21.75;20.02;;;;;;;43.49;15.49;100831.06;4963861;28;99246;-82
2023/07/07 08:56:05;;;;;;;20.75;19.33;;;;;;;42.56;16.24;100836.38;4970793;28;97390;-82
2023/07/07 08:58:52;;;;;;;20.80;19.40;;;;;;;41.23;16.78;100842.13;4971265;28;96709;-81
2023/07/07 09:01:24;;;;;;;22.13;20.40;;;;;;;40.35;17.40;100845.78;4971884;28;96808;-81
2023/07/07 09:04:03;;;;;;;21.25;19.77;;;;;;;39.46;18.45;100840.88;4970930;28;99161;-82
2023/07/07 09:07:03;;;;;;;21.20;19.80;;;;;;;38.72;18.62;100843.53;4969982;28;99353;-84
2023/07/07 09:09:32;;;;;;;21.67;20.27;;;;;;;36.57;19.07;100837.50;4962686;28;97329;-77
2023/07/07 09:12:12;;;;;;;21.67;20.17;;;;;;;37.06;20.07;100833.47;4968396;28;97277;-77
2023/07/07 09:14:38;;;;;;;21.00;19.38;;;;;;;37.15;21.11;100843.13;4964732;28;98925;-77
2023/07/07 09:17:15;;;;;;;20.75;19.23;;;;;;;36.66;20.59;100846.34;4975984;28;98711;-75
2023/07/07 09:19:43;;;;;;;21.05;19.60;;;;;;;36.09;20.84;100829.44;4962456;28;96786;-77
2023/07/07 09:22:33;;;;;;;20.83;19.52;;;;;;;36.11;21.32;100832.81;4976988;28;97598;-77
2023/07/07 09:25:06;;;;;;;20.60;19.25;;;;;;;36.40;22.07;100850.72;4966798;28;99129;-77
2023/07/07 09:27:40;;;;;;;20.58;19.15;;;;;;;35.85;22.53;100840.91;4960932;28;98816;-77
2023/07/07 09:30:14;;;;;;;21.48;19.85;;;;;;;35.71;21.92;100848.22;4978961;28;96859;-77
2023/07/07 09:32:40;;;;;;;20.33;18.73;;;;;;;35.98;22.41;100841.78;4966359;28;97679;-76
2023/07/07 09:35:13;;;;;;;20.23;18.92;;;;;;;35.85;22.79;100846.38;4955834;28;98846;-76
2023/07/07 09:38:03;;;;;;;19.15;17.95;;;;;;;35.43;22.53;100848.28;4962602;28;98698;-77
2023/07/07 09:40:48;;;;;;;19.35;18.15;;;;;;;35.52;23.40;100850.66;4964348;28;97520;-78
2023/07/07 09:43:32;;;;;;;19.73;18.42;;;;;;;35.55;22.73;100842.09;4975110;28;97027;-78
2023/07/07 09:46:20;;;;;;;20.30;18.90;;;;;;;35.24;22.31;100838.97;4964844;28;98953;-76
2023/07/07 09:48:54;;;;;;;19.48;18.20;;;;;;;34.31;22.77;100844.50;4960949;28;98838;-77
2023/07/07 09:51:38;;;;;;;19.63;18.15;;;;;;;34.35;23.30;100839.50;4964128;28;97493;-78
2023/07/07 09:54:04;;;;;;;19.55;18.13;;;;;;;33.48;22.82;100832.19;4957939;28;97489;-77
2023/07/07 09:56:38;;;;;;;19.85;18.35;;;;;;;33.04;23.23;100838.50;4969151;28;98695;-77
2023/07/07 09:59:12;;;;;;;19.15;17.95;;;;;;;32.44;23.58;100832.91;4961907;28;98879;-77
2023/07/07 10:02:14;;;;;;;18.85;17.65;;;;;;;32.05;23.93;100837.63;4962484;28;96940;-79
2023/07/07 10:04:42;;;;;;;19.05;17.58;;;;;;;32.49;23.79;100845.13;4967602;28;96810;-77
2023/07/07 10:07:09;;;;;;;19.40;17.92;;;;;;;32.27;24.34;100841.38;4977608;28;99262;-77
2023/07/07 10:09:35;;;;;;;19.13;17.83;;;;;;;32.54;24.57;100850.84;4964296;28;98762;-77
2023/07/07 10:12:00;;;;;;;19.30;18.10;;;;;;;32.94;25.00;100846.91;4967859;28;98099;-77
2023/07/07 10:14:28;;;;;;;20.60;18.90;;;;;;;32.71;24.73;100829.81;4967422;28;97590;-77
2023/07/07 10:17:10;;;;;;;20.05;18.65;;;;;;;33.09;25.30;100841.50;4964598;28;98905;-74
2023/07/07 10:19:50;;;;;;;19.63;18.25;;;;;;;33.12;26.57;100846.56;4967598;28;98450;-73
2023/07/07 10:22:16;;;;;;;19.42;18.23;;;;;;;33.04;26.16;100844.78;4982529;28;96944;-73
2023/07/07 10:24:42;;;;;;;19.52;17.92;;;;;;;32.63;25.78;100844.31;4965544;28;97480;-73
2023/07/07 10:27:11;;;;;;;20.80;18.92;;;;;;;32.60;27.11;100841.97;4968268;28;98798;-68
2023/07/07 10:29:39;;;;;;;20.02;18.73;;;;;;;32.46;27.00;100847.19;4967781;28;98337;-67
2023/07/07 10:32:06;;;;;;;19.35;18.15;;;;;;;32.33;27.25;100851.50;4969636;28;97387;-69
2023/07/07 10:34:41;;;;;;;19.63;18.20;;;;;;;32.09;27.13;100853.38;4968696;28;96891;-68
2023/07/07 10:37:18;;;;;;;19.40;17.90;;;;;;;31.86;26.90;100863.34;4966915;28;99034;-68
2023/07/07 10:39:49;;;;;;;19.80;18.40;;;;;;;31.47;27.01;100854.16;4962619;28;98654;-75
2023/07/07 10:42:14;;;;;;;20.08;18.55;;;;;;;31.42;26.56;100855.75;4971058;28;96802;-73
2023/07/07 10:44:41;;;;;;;19.10;17.73;;;;;;;31.22;25.86;100845.25;4970967;28;96878;-71
2023/07/07 10:47:08;;;;;;;18.35;17.05;;;;;;;31.36;25.54;100849.16;4970613;28;98712;-68
2023/07/07 10:49:34;;;;;;;18.83;17.60;;;;;;;31.27;26.13;100852.84;4973992;28;98790;-73
2023/07/07 10:52:11;;;;;;;19.65;18.15;;;;;;;31.46;27.25;100847.06;4969778;28;97141;-77
2023/07/07 10:55:04;;;;;;;19.40;17.98;;;;;;;31.56;26.32;100847.72;4973206;28;97366;-79
2023/07/07 10:58:00;;;;;;;18.92;17.40;;;;;;;30.99;29.04;100847.88;4969040;28;98202;-79
2023/07/07 11:01:05;;;;;;;19.63;18.10;;;;;;;30.67;26.30;100827.06;4967335;28;98544;-77
2023/07/07 11:03:42;;;;;;;19.48;18.23;;;;;;;30.71;27.14;100843.81;4962105;28;97136;-78
2023/07/07 11:06:32;;;;;;;18.95;17.75;;;;;;;30.31;26.96;100838.25;4961253;28;97538;-78
2023/07/07 11:09:19;;;;;;;19.53;17.97;;;;;;;30.40;26.12;100839.09;4966770;28;99521;-77
2023/07/07 11:11:58;;;;;;;18.48;17.35;;;;;;;30.29;26.11;100840.25;4981461;28;99324;-77
2023/07/07 11:14:33;;;;;;;19.33;17.88;;;;;;;30.32;26.34;100834.50;4964078;28;97285;-75
2023/07/07 11:17:09;;;;;;;19.33;17.83;;;;;;;30.41;26.82;100838.06;4978435;28;97023;-74
2023/07/07 11:19:53;;;;;;;18.65;17.45;;;;;;;30.48;26.95;100833.66;4965233;28;99136;-75